Time;durP1;ratioP1;P1;durP2;ratioP2;P2;SDS_P1;SDS_P2;PMS_P1;PMS_P2;Temp;Humidity;BMP_temperature;BMP_pressure;BME280_temperature;BME280_humidity;BME280_pressure;Samples;Min_cycle;Max_cycle;Signal;HPM_P1;HPM_P2
2023/06/20 00:00:07;;;;;;;4.65;3.00;;;21.10;81.60;;;;;;5034421;28;20536;-86
2023/06/20 00:02:33;;;;;;;5.25;3.45;;;21.10;81.50;;;;;;5034184;28;20031;-86
2023/06/20 00:05:00;;;;;;;4.97;3.22;;;21.10;81.50;;;;;;5012655;28;20459;-86
2023/06/20 00:07:25;;;;;;;5.18;3.33;;;21.10;81.40;;;;;;5030430;28;20548;-86
2023/06/20 00:09:51;;;;;;;4.70;3.20;;;21.20;81.30;;;;;;5016205;28;20021;-85
2023/06/20 00:12:16;;;;;;;4.47;2.78;;;21.20;81.20;;;;;;5016227;28;20390;-85
2023/06/20 00:14:42;;;;;;;4.63;2.92;;;21.20;81.40;;;;;;5013137;28;20018;-86
2023/06/20 00:17:07;;;;;;;3.88;2.67;;;21.20;81.10;;;;;;5019607;28;20093;-85
2023/06/20 00:19:33;;;;;;;5.47;3.33;;;21.30;81.10;;;;;;5013049;28;20064;-86
2023/06/20 00:22:02;;;;;;;5.13;3.20;;;21.30;81.00;;;;;;5018578;28;20018;-87
2023/06/20 00:24:28;;;;;;;4.75;2.97;;;21.30;81.00;;;;;;5021974;28;20048;-86
2023/06/20 00:26:56;;;;;;;4.40;2.85;;;21.30;81.00;;;;;;5006677;28;20474;-86
2023/06/20 00:29:21;;;;;;;4.75;3.03;;;21.30;81.00;;;;;;5016465;28;20113;-86
2023/06/20 00:31:46;;;;;;;5.35;3.50;;;21.20;81.00;;;;;;5015988;28;20474;-86
2023/06/20 00:34:12;;;;;;;5.80;3.67;;;21.20;81.10;;;;;;5018758;28;20017;-86
2023/06/20 00:36:38;;;;;;;5.97;3.80;;;21.20;81.20;;;;;;5023749;28;20382;-86
2023/06/20 00:39:04;;;;;;;5.43;3.53;;;21.20;81.30;;;;;;5015367;28;20410;-86
2023/06/20 00:41:31;;;;;;;5.38;3.63;;;21.20;81.40;;;;;;5015255;28;20026;-86
2023/06/20 00:44:02;;;;;;;4.95;3.40;;;21.20;81.50;;;;;;5017375;28;20028;-86
2023/06/20 00:46:31;;;;;;;5.18;3.28;;;21.10;81.50;;;;;;5022894;28;20033;-86
2023/06/20 00:48:57;;;;;;;5.75;3.15;;;21.10;81.50;;;;;;4996787;28;20030;-86
2023/06/20 00:51:23;;;;;;;5.38;3.30;;;21.10;81.50;;;;;;4996590;28;20045;-86
2023/06/20 00:53:48;;;;;;;5.20;3.40;;;21.10;81.50;;;;;;4998922;28;20205;-86
2023/06/20 00:56:15;;;;;;;6.03;3.55;;;21.10;81.50;;;;;;5022659;28;20037;-84
2023/06/20 00:58:41;;;;;;;4.85;3.28;;;21.10;81.60;;;;;;5013928;28;20014;-86
2023/06/20 01:01:06;;;;;;;5.45;3.25;;;21.10;81.50;;;;;;5013852;28;20172;-86
2023/06/20 01:03:35;;;;;;;4.97;3.20;;;21.10;81.50;;;;;;5013209;28;20382;-85
2023/06/20 01:06:20;;;;;;;5.22;3.40;;;21.10;81.50;;;;;;5023929;28;20077;-86
2023/06/20 01:08:58;;;;;;;5.22;3.38;;;21.10;81.50;;;;;;5029970;28;20013;-86
2023/06/20 01:11:35;;;;;;;5.45;3.50;;;21.10;81.60;;;;;;5034612;28;20030;-86
2023/06/20 01:14:24;;;;;;;4.80;3.15;;;21.10;81.60;;;;;;5014716;28;20018;-86
2023/06/20 01:17:00;;;;;;;4.97;3.20;;;21.10;81.60;;;;;;5003786;28;20022;-86
2023/06/20 01:19:49;;;;;;;5.13;3.28;;;21.10;81.70;;;;;;5014413;28;20024;-86
2023/06/20 01:22:36;;;;;;;5.65;3.63;;;21.10;81.70;;;;;;4997025;28;20033;-86
2023/06/20 01:25:07;;;;;;;5.28;3.40;;;21.10;81.60;;;;;;5004534;28;20018;-86
2023/06/20 01:27:40;;;;;;;5.55;3.35;;;21.10;81.70;;;;;;5032256;28;20108;-86
2023/06/20 01:30:10;;;;;;;5.10;3.40;;;21.10;81.70;;;;;;5016916;28;20438;-86
2023/06/20 01:32:46;;;;;;;5.40;3.50;;;21.10;81.60;;;;;;5033879;28;20024;-86
2023/06/20 01:35:15;;;;;;;5.63;4.00;;;21.20;81.60;;;;;;5006807;28;20017;-86
2023/06/20 01:37:43;;;;;;;5.88;3.70;;;21.20;81.50;;;;;;5015043;28;20021;-86
2023/06/20 01:40:10;;;;;;;5.32;3.55;;;21.10;81.40;;;;;;5015812;28;20067;-86
2023/06/20 01:42:38;;;;;;;5.40;3.45;;;21.20;81.30;;;;;;5034290;28;20057;-87
2023/06/20 01:45:06;;;;;;;4.93;3.45;;;21.20;81.30;;;;;;5015779;28;20057;-86
2023/06/20 01:47:36;;;;;;;5.18;3.38;;;21.20;81.20;;;;;;5003540;28;20351;-86
2023/06/20 01:50:05;;;;;;;5.70;3.60;;;21.20;81.20;;;;;;5015681;28;20025;-85
2023/06/20 01:52:32;;;;;;;5.63;3.72;;;21.20;81.10;;;;;;5033791;28;20490;-85
2023/06/20 01:54:59;;;;;;;5.20;3.50;;;21.20;81.10;;;;;;5011568;28;20033;-86
2023/06/20 01:57:26;;;;;;;5.07;3.38;;;21.20;81.10;;;;;;5009089;28;20023;-86
2023/06/20 01:59:53;;;;;;;5.90;3.80;;;21.20;81.20;;;;;;5017736;28;20377;-86
2023/06/20 02:02:19;;;;;;;5.90;4.05;;;21.20;81.30;;;;;;4999737;28;20025;-86
2023/06/20 02:04:46;;;;;;;5.82;4.00;;;21.20;81.40;;;;;;5005419;28;20588;-86
2023/06/20 02:07:13;;;;;;;5.80;3.90;;;21.10;81.50;;;;;;5003967;28;20018;-85
2023/06/20 02:09:42;;;;;;;5.97;4.10;;;21.10;81.50;;;;;;5017245;28;20145;-86
2023/06/20 02:12:09;;;;;;;5.50;3.70;;;21.10;81.60;;;;;;4999430;28;20544;-86
2023/06/20 02:14:35;;;;;;;5.38;3.60;;;21.10;81.60;;;;;;5022917;28;20033;-86
2023/06/20 02:17:04;;;;;;;5.68;3.80;;;21.10;81.70;;;;;;5011974;28;20026;-86
2023/06/20 02:19:29;;;;;;;6.30;3.95;;;21.10;81.70;;;;;;5018774;28;20059;-86
2023/06/20 02:21:56;;;;;;;5.72;3.70;;;21.10;81.70;;;;;;5018585;28;20029;-86
2023/06/20 02:24:23;;;;;;;6.00;4.00;;;21.10;81.70;;;;;;5030188;28;20025;-86
2023/06/20 02:26:52;;;;;;;5.80;3.72;;;21.10;81.70;;;;;;5006674;28;20029;-86
2023/06/20 02:29:19;;;;;;;5.43;3.70;;;21.10;81.70;;;;;;5016843;28;20030;-85
2023/06/20 02:31:47;;;;;;;6.35;4.22;;;21.10;81.80;;;;;;5013201;28;20028;-86
2023/06/20 02:34:18;;;;;;;5.28;3.42;;;21.10;81.80;;;;;;5035481;28;20049;-86
2023/06/20 02:36:45;;;;;;;5.90;3.97;;;21.10;81.80;;;;;;5035663;28;20014;-85
2023/06/20 02:39:11;;;;;;;5.90;3.83;;;21.10;81.80;;;;;;5017975;28;20413;-86
2023/06/20 02:41:36;;;;;;;6.13;4.20;;;21.10;81.80;;;;;;5035891;28;20025;-85
2023/06/20 02:44:02;;;;;;;5.47;3.70;;;21.10;81.80;;;;;;5014314;28;20462;-86
2023/06/20 02:46:54;;;;;;;5.70;3.85;;;21.10;81.80;;;;;;5026473;28;20088;-86
2023/06/20 02:49:45;;;;;;;6.00;4.03;;;21.00;81.80;;;;;;5014527;28;20018;-86
2023/06/20 02:52:26;;;;;;;6.05;3.67;;;21.00;81.80;;;;;;5014545;28;20111;-86
2023/06/20 02:55:34;;;;;;;5.55;3.78;;;21.10;81.80;;;;;;5013833;28;20026;-86
2023/06/20 02:58:01;;;;;;;6.03;4.10;;;21.10;81.80;;;;;;5014161;28;20036;-85
2023/06/20 03:00:28;;;;;;;5.93;3.85;;;21.10;81.80;;;;;;5015456;28;20045;-85
2023/06/20 03:03:03;;;;;;;6.07;4.13;;;21.10;81.70;;;;;;5014153;28;20040;-85
2023/06/20 03:05:31;;;;;;;5.57;3.80;;;21.10;81.60;;;;;;5016598;28;20120;-86
2023/06/20 03:07:58;;;;;;;5.32;3.70;;;21.20;81.60;;;;;;5015638;28;20030;-86
2023/06/20 03:10:24;;;;;;;5.90;3.88;;;21.20;81.50;;;;;;5035143;28;20159;-86
2023/06/20 03:12:50;;;;;;;5.97;4.00;;;21.20;81.40;;;;;;5017172;28;20479;-86
2023/06/20 03:15:16;;;;;;;5.68;3.70;;;21.20;81.40;;;;;;5024224;28;20029;-86
2023/06/20 03:17:41;;;;;;;6.25;3.80;;;21.20;81.30;;;;;;5033473;28;20366;-86
2023/06/20 03:20:09;;;;;;;5.53;3.80;;;21.20;81.30;;;;;;5017345;28;20017;-85
2023/06/20 03:22:34;;;;;;;5.55;3.88;;;21.20;81.30;;;;;;5033898;28;20045;-85
2023/06/20 03:25:00;;;;;;;5.88;4.05;;;21.20;81.30;;;;;;5015263;28;20123;-88
2023/06/20 03:27:25;;;;;;;6.97;4.78;;;21.20;81.20;;;;;;5013983;28;20022;-87
2023/06/20 03:29:51;;;;;;;6.93;3.95;;;21.20;81.40;;;;;;5018611;28;20051;-87
2023/06/20 03:32:16;;;;;;;6.45;4.45;;;21.10;81.40;;;;;;5035608;28;20025;-87
2023/06/20 03:34:42;;;;;;;6.05;3.95;;;21.10;81.60;;;;;;5047204;28;20117;-86
2023/06/20 03:37:07;;;;;;;5.85;4.10;;;21.10;81.60;;;;;;5015019;28;20099;-86
2023/06/20 03:39:33;;;;;;;6.38;4.50;;;21.10;81.70;;;;;;5016818;28;20120;-85
2023/06/20 03:41:58;;;;;;;5.05;3.53;;;21.10;81.80;;;;;;5016986;28;20139;-87
2023/06/20 03:44:24;;;;;;;5.88;3.70;;;21.10;81.80;;;;;;5016971;28;20408;-87
2023/06/20 03:46:49;;;;;;;6.57;4.13;;;21.20;81.90;;;;;;5016634;28;20025;-86
2023/06/20 03:49:15;;;;;;;6.38;4.28;;;21.20;81.90;;;;;;5016547;28;20647;-87
2023/06/20 03:51:40;;;;;;;5.95;4.20;;;20.90;81.80;;;;;;5034096;28;20025;-88
2023/06/20 03:54:06;;;;;;;5.93;4.03;;;21.10;81.90;;;;;;5014955;28;20021;-85
2023/06/20 03:56:31;;;;;;;6.03;4.13;;;21.10;81.90;;;;;;5016473;28;20129;-86
2023/06/20 03:58:57;;;;;;;6.07;4.13;;;21.10;81.80;;;;;;5033525;28;20499;-88
2023/06/20 04:01:24;;;;;;;6.25;4.40;;;21.10;81.90;;;;;;5015709;28;20029;-87
2023/06/20 04:03:50;;;;;;;5.82;4.18;;;21.00;81.80;;;;;;5011067;28;20025;-84
2023/06/20 04:06:15;;;;;;;5.88;4.28;;;21.00;81.80;;;;;;5025096;28;20095;-87
2023/06/20 04:08:42;;;;;;;6.40;4.15;;;21.10;81.90;;;;;;5014529;28;20021;-86
2023/06/20 04:11:10;;;;;;;5.72;3.92;;;21.00;81.90;;;;;;5014760;28;20025;-85
2023/06/20 04:13:42;;;;;;;5.80;4.00;;;21.00;81.90;;;;;;5012857;28;20026;-89
2023/06/20 04:16:07;;;;;;;5.85;4.07;;;21.20;82.00;;;;;;5014454;28;20029;-82
2023/06/20 04:18:33;;;;;;;6.18;4.38;;;21.00;81.80;;;;;;5015519;28;20041;-85
2023/06/20 04:21:02;;;;;;;6.00;4.38;;;21.10;82.00;;;;;;5015321;28;20029;-85
2023/06/20 04:23:27;;;;;;;6.13;4.40;;;21.60;82.20;;;;;;5014827;28;20022;-86
2023/06/20 04:25:55;;;;;;;6.10;4.20;;;21.10;82.00;;;;;;5017998;28;20048;-86
2023/06/20 04:28:21;;;;;;;6.30;4.40;;;21.00;81.80;;;;;;5018836;28;20025;-87
2023/06/20 04:30:48;;;;;;;6.30;4.53;;;21.10;81.80;;;;;;5007370;28;20102;-86
2023/06/20 04:33:16;;;;;;;6.50;4.40;;;19.90;81.10;;;;;;5018091;28;20018;-87
2023/06/20 04:35:42;;;;;;;6.00;4.30;;;20.80;81.50;;;;;;5008185;28;20030;-87
2023/06/20 04:38:08;;;;;;;6.13;4.00;;;21.60;81.80;;;;;;5014507;28;20047;-86
2023/06/20 04:40:33;;;;;;;6.00;4.35;;;22.50;82.40;;;;;;5014248;28;20022;-87
2023/06/20 04:42:59;;;;;;;5.95;4.20;;;20.40;81.00;;;;;;5012570;28;20129;-84
2023/06/20 04:45:24;;;;;;;6.47;4.30;;;21.30;81.60;;;;;;5015205;28;20095;-87
2023/06/20 04:47:53;;;;;;;6.45;4.60;;;21.30;81.50;;;;;;5013127;28;20382;-85
2023/06/20 04:50:19;;;;;;;6.15;4.50;;;21.60;81.70;;;;;;5016442;28;20029;-86
2023/06/20 04:52:44;;;;;;;6.30;4.25;;;21.20;81.50;;;;;;5015384;28;20030;-86
2023/06/20 04:55:10;;;;;;;6.20;4.35;;;21.20;81.50;;;;;;5014523;28;20048;-86
2023/06/20 04:57:54;;;;;;;6.18;4.53;;;21.20;81.60;;;;;;5033849;28;20037;-87
2023/06/20 05:00:19;;;;;;;7.10;4.72;;;21.20;81.80;;;;;;5011023;28;20037;-87
2023/06/20 05:02:46;;;;;;;6.10;4.30;;;21.10;81.80;;;;;;4995332;28;20067;-87
2023/06/20 05:05:11;;;;;;;7.57;4.82;;;21.10;81.80;;;;;;5004873;28;20042;-87
2023/06/20 05:07:42;;;;;;;7.63;5.43;;;21.10;81.90;;;;;;5010248;28;20105;-87
2023/06/20 05:10:08;;;;;;;7.20;4.95;;;21.10;81.90;;;;;;4995365;28;20084;-87
2023/06/20 05:12:34;;;;;;;6.50;4.88;;;21.00;81.90;;;;;;4995313;28;20042;-87
2023/06/20 05:15:08;;;;;;;7.55;4.90;;;21.80;82.40;;;;;;5009252;28;20378;-87
2023/06/20 05:17:33;;;;;;;8.48;4.97;;;21.10;82.10;;;;;;5005708;28;20025;-87
2023/06/20 05:20:05;;;;;;;6.90;5.18;;;20.30;81.60;;;;;;5019423;28;20109;-87
2023/06/20 05:22:31;;;;;;;8.80;4.63;;;21.10;82.10;;;;;;5018354;28;20021;-87
2023/06/20 05:24:57;;;;;;;7.93;4.82;;;21.00;82.00;;;;;;5017073;28;20385;-87
2023/06/20 05:27:22;;;;;;;7.95;4.63;;;21.00;82.00;;;;;;5014023;28;20025;-85
2023/06/20 05:29:48;;;;;;;8.82;4.70;;;21.00;82.00;;;;;;5017098;28;20085;-87
2023/06/20 05:32:13;;;;;;;7.80;4.90;;;21.00;82.00;;;;;;5016492;28;20025;-87
2023/06/20 05:34:39;;;;;;;9.32;5.45;;;21.00;82.00;;;;;;5013930;28;20032;-87
2023/06/20 05:37:04;;;;;;;6.63;4.78;;;21.00;82.10;;;;;;5016750;28;20484;-87
2023/06/20 05:39:30;;;;;;;8.52;4.63;;;21.00;82.10;;;;;;5017279;28;20026;-87
2023/06/20 05:41:56;;;;;;;7.85;5.03;;;21.00;82.10;;;;;;5016699;28;20081;-87
2023/06/20 05:44:22;;;;;;;7.60;4.82;;;21.00;82.10;;;;;;5010208;28;20021;-86
2023/06/20 05:46:47;;;;;;;6.93;4.75;;;21.00;82.10;;;;;;5007714;28;20029;-87
2023/06/20 05:49:14;;;;;;;8.88;5.35;;;21.00;82.10;;;;;;5016568;28;20029;-87
2023/06/20 05:51:40;;;;;;;6.82;5.03;;;21.00;82.10;;;;;;5034151;28;20044;-87
2023/06/20 05:54:07;;;;;;;8.10;5.07;;;21.10;82.10;;;;;;5013189;28;20458;-86
2023/06/20 05:56:33;;;;;;;6.85;4.53;;;21.10;82.10;;;;;;5006641;28;20026;-87
2023/06/20 05:58:58;;;;;;;7.15;4.97;;;21.10;82.00;;;;;;5013151;28;20071;-87
2023/06/20 06:01:24;;;;;;;9.05;5.22;;;21.10;81.90;;;;;;5016146;28;20024;-85
2023/06/20 06:03:49;;;;;;;6.90;4.80;;;21.10;81.80;;;;;;5013762;28;20370;-87
2023/06/20 06:06:15;;;;;;;6.40;4.82;;;21.20;81.80;;;;;;5014796;28;20029;-85
2023/06/20 06:08:40;;;;;;;7.45;4.75;;;21.20;81.70;;;;;;5033627;28;20041;-87
2023/06/20 06:11:07;;;;;;;7.35;5.13;;;21.20;81.60;;;;;;5033668;28;20017;-87
2023/06/20 06:13:33;;;;;;;7.57;4.82;;;21.20;81.50;;;;;;5014111;28;20026;-87
2023/06/20 06:15:58;;;;;;;8.65;4.97;;;21.20;81.40;;;;;;5004477;28;20030;-87
2023/06/20 06:18:24;;;;;;;7.57;4.93;;;21.20;81.40;;;;;;5015612;28;20386;-87
2023/06/20 06:20:49;;;;;;;7.20;4.93;;;21.20;81.40;;;;;;5015236;28;20010;-87
2023/06/20 06:23:15;;;;;;;8.80;5.10;;;21.20;81.40;;;;;;5015223;28;20432;-87
2023/06/20 06:25:40;;;;;;;7.53;4.88;;;21.20;81.50;;;;;;5001194;28;20021;-87
2023/06/20 06:28:06;;;;;;;8.25;4.85;;;21.20;81.70;;;;;;4995305;28;20022;-87
2023/06/20 06:30:34;;;;;;;6.28;4.53;;;21.20;81.70;;;;;;5013108;28;20426;-87
2023/06/20 06:33:01;;;;;;;7.38;4.80;;;21.20;81.80;;;;;;4995426;28;20382;-86
2023/06/20 06:35:27;;;;;;;6.45;4.80;;;21.20;81.90;;;;;;5018894;28;20014;-87
2023/06/20 06:37:54;;;;;;;7.13;5.22;;;21.20;81.90;;;;;;5032496;28;20021;-86
2023/06/20 06:40:20;;;;;;;7.50;5.07;;;21.10;81.90;;;;;;5014606;28;20026;-87
2023/06/20 06:42:46;;;;;;;7.13;5.32;;;21.10;81.90;;;;;;5014694;28;20013;-87
2023/06/20 06:45:11;;;;;;;7.88;5.38;;;21.10;82.00;;;;;;5004510;28;20026;-87
2023/06/20 06:47:37;;;;;;;7.30;5.05;;;21.10;82.00;;;;;;5016215;28;20029;-86
2023/06/20 06:50:03;;;;;;;7.18;4.78;;;21.10;82.00;;;;;;5035643;28;20025;-86
2023/06/20 06:52:30;;;;;;;7.65;4.97;;;21.10;82.10;;;;;;5017824;28;20496;-87
2023/06/20 06:54:56;;;;;;;6.68;4.57;;;21.10;82.10;;;;;;5038792;28;20081;-88
2023/06/20 06:57:22;;;;;;;6.70;4.90;;;21.10;82.10;;;;;;5024519;28;20449;-87
2023/06/20 06:59:47;;;;;;;7.10;5.20;;;21.10;82.10;;;;;;5023863;28;20091;-87
2023/06/20 07:02:13;;;;;;;7.55;4.72;;;21.10;82.10;;;;;;5023769;28;20037;-87
2023/06/20 07:04:39;;;;;;;7.53;5.15;;;21.10;82.10;;;;;;5041192;28;20028;-87
2023/06/20 07:07:05;;;;;;;7.20;5.10;;;21.10;82.20;;;;;;5041249;28;20021;-87
2023/06/20 07:09:31;;;;;;;7.10;5.13;;;21.10;82.20;;;;;;5041410;28;20077;-87
2023/06/20 07:11:56;;;;;;;7.30;4.93;;;21.10;82.20;;;;;;5040609;28;20101;-87
2023/06/20 07:14:22;;;;;;;6.75;4.78;;;21.10;82.10;;;;;;5037636;28;20492;-87
2023/06/20 07:16:47;;;;;;;7.60;4.90;;;21.10;82.10;;;;;;5040595;28;20025;-87
2023/06/20 07:19:13;;;;;;;7.25;5.10;;;21.10;82.10;;;;;;5022600;28;20013;-87
2023/06/20 07:21:38;;;;;;;7.00;4.80;;;21.10;82.10;;;;;;5022024;28;20021;-88
2023/06/20 07:24:04;;;;;;;6.78;5.30;;;21.10;82.00;;;;;;5017357;28;20013;-87
2023/06/20 07:26:29;;;;;;;7.53;5.28;;;21.20;82.00;;;;;;5033044;28;20386;-87
2023/06/20 07:28:55;;;;;;;7.35;5.20;;;21.20;81.90;;;;;;5021035;28;20017;-87
2023/06/20 07:31:20;;;;;;;6.32;4.82;;;21.20;81.80;;;;;;5020555;28;20358;-87
2023/06/20 07:33:46;;;;;;;6.28;4.57;;;21.20;81.70;;;;;;5034994;28;20504;-87
2023/06/20 07:36:12;;;;;;;7.28;5.03;;;21.20;81.60;;;;;;5011597;28;20025;-87
2023/06/20 07:38:38;;;;;;;6.10;4.43;;;21.30;81.60;;;;;;5020578;28;20029;-87
2023/06/20 07:41:04;;;;;;;7.45;5.28;;;21.20;81.40;;;;;;5038241;28;20025;-87
2023/06/20 07:43:29;;;;;;;7.05;5.10;;;21.30;81.50;;;;;;5022702;28;20017;-88
2023/06/20 07:45:55;;;;;;;7.00;5.03;;;21.30;81.40;;;;;;5032166;28;20067;-87
2023/06/20 07:48:24;;;;;;;6.68;4.85;;;21.30;81.40;;;;;;5023647;28;20010;-88
2023/06/20 07:50:49;;;;;;;6.47;4.93;;;21.30;81.50;;;;;;5040951;28;20466;-87
2023/06/20 07:53:15;;;;;;;6.88;4.95;;;21.20;81.50;;;;;;5022877;28;20033;-87
2023/06/20 07:55:40;;;;;;;7.38;5.05;;;21.20;81.60;;;;;;5037208;28;20033;-87
2023/06/20 07:58:06;;;;;;;7.15;5.20;;;21.20;81.70;;;;;;5039945;28;20103;-87
2023/06/20 08:00:31;;;;;;;6.68;5.00;;;21.20;81.70;;;;;;5039329;28;20156;-87
2023/06/20 08:02:57;;;;;;;6.45;4.85;;;21.20;81.70;;;;;;5021581;28;20029;-87
2023/06/20 08:05:22;;;;;;;6.82;4.80;;;21.10;81.70;;;;;;5007478;28;20053;-87
2023/06/20 08:07:48;;;;;;;7.63;5.30;;;21.20;81.90;;;;;;5038932;28;20032;-87
2023/06/20 08:10:14;;;;;;;7.25;5.20;;;21.20;81.90;;;;;;5021491;28;20018;-87
2023/06/20 08:12:39;;;;;;;7.28;5.20;;;21.20;81.90;;;;;;5038081;28;20032;-87
2023/06/20 08:15:05;;;;;;;7.57;5.40;;;21.20;81.90;;;;;;5032479;28;20100;-87
2023/06/20 08:17:32;;;;;;;7.40;5.03;;;21.10;81.90;;;;;;5008263;28;20014;-87
2023/06/20 08:19:59;;;;;;;6.50;4.80;;;21.20;82.10;;;;;;5037944;28;20082;-87
2023/06/20 08:22:28;;;;;;;6.75;5.03;;;21.10;82.00;;;;;;5020046;28;20116;-87
2023/06/20 08:24:53;;;;;;;6.70;4.80;;;21.10;82.00;;;;;;5019095;28;20037;-87
2023/06/20 08:27:18;;;;;;;6.95;5.10;;;21.10;82.50;;;;;;5021592;28;20030;-87
2023/06/20 08:29:44;;;;;;;6.60;4.72;;;21.20;82.10;;;;;;5015712;28;20040;-87
2023/06/20 08:32:09;;;;;;;8.25;5.55;;;21.20;82.10;;;;;;5017225;28;20072;-87
2023/06/20 08:34:35;;;;;;;6.82;4.93;;;21.10;82.00;;;;;;5022231;28;20433;-87
2023/06/20 08:37:00;;;;;;;7.25;5.20;;;21.10;82.00;;;;;;5016926;28;20371;-86
2023/06/20 08:39:26;;;;;;;6.53;5.20;;;21.20;82.10;;;;;;5016520;28;20096;-87
2023/06/20 08:41:52;;;;;;;6.38;4.50;;;21.20;82.00;;;;;;5015058;28;20026;-88
2023/06/20 08:44:17;;;;;;;6.65;5.00;;;21.20;82.10;;;;;;5018632;28;20053;-87
2023/06/20 08:46:45;;;;;;;6.57;4.43;;;21.20;82.00;;;;;;5035360;28;20447;-87
2023/06/20 08:49:14;;;;;;;7.72;5.25;;;21.20;82.00;;;;;;5018084;28;20030;-87
2023/06/20 08:51:43;;;;;;;6.45;4.72;;;21.20;81.90;;;;;;5017687;28;20469;-87
2023/06/20 08:54:13;;;;;;;7.03;5.13;;;21.20;81.70;;;;;;5032598;28;20056;-87
2023/06/20 08:56:39;;;;;;;7.10;5.00;;;21.30;81.70;;;;;;5008049;28;20466;-87
2023/06/20 08:59:05;;;;;;;6.30;4.70;;;21.30;81.50;;;;;;5035367;28;20267;-87
2023/06/20 09:01:30;;;;;;;7.43;5.28;;;21.30;81.50;;;;;;5016417;28;20021;-86
2023/06/20 09:04:00;;;;;;;7.13;5.18;;;21.40;81.40;;;;;;5032516;28;20064;-87
2023/06/20 09:06:38;;;;;;;6.38;4.60;;;21.40;81.40;;;;;;5023172;28;20101;-87
2023/06/20 09:09:16;;;;;;;7.15;4.95;;;21.40;81.30;;;;;;4997261;28;20022;-87
2023/06/20 09:11:48;;;;;;;7.15;5.50;;;21.40;81.20;;;;;;4996979;28;20108;-87
2023/06/20 09:14:13;;;;;;;6.40;4.60;;;21.40;81.10;;;;;;5004303;28;20113;-87
2023/06/20 09:16:41;;;;;;;6.32;4.50;;;21.40;81.10;;;;;;5016221;28;20049;-87
2023/06/20 09:19:06;;;;;;;6.32;4.70;;;21.40;81.10;;;;;;5034286;28;20018;-87
2023/06/20 09:21:36;;;;;;;6.80;5.00;;;21.40;81.20;;;;;;5034524;28;20109;-87
2023/06/20 09:24:04;;;;;;;7.32;5.30;;;21.40;81.20;;;;;;5014951;28;20025;-87
2023/06/20 09:26:31;;;;;;;6.63;4.95;;;21.40;81.30;;;;;;5033671;28;20028;-86
2023/06/20 09:29:14;;;;;;;7.55;5.55;;;21.30;81.30;;;;;;5033862;28;20088;-86
2023/06/20 09:31:50;;;;;;;6.72;4.50;;;21.40;81.40;;;;;;5034030;28;20017;-87
2023/06/20 09:34:18;;;;;;;6.50;4.72;;;21.30;81.30;;;;;;5013145;28;20074;-87
2023/06/20 09:36:44;;;;;;;6.40;4.75;;;21.40;81.40;;;;;;5013899;28;20071;-87
2023/06/20 09:39:17;;;;;;;6.85;5.20;;;21.40;81.40;;;;;;5013628;28;20363;-87
2023/06/20 09:41:47;;;;;;;6.90;5.07;;;21.40;81.30;;;;;;5013478;28;20017;-87
2023/06/20 09:44:13;;;;;;;6.63;4.93;;;21.40;81.30;;;;;;5000094;28;20065;-87
2023/06/20 09:46:39;;;;;;;6.75;5.10;;;21.40;81.30;;;;;;5028475;28;20514;-87
2023/06/20 09:49:07;;;;;;;6.78;4.90;;;21.40;81.40;;;;;;5032666;28;20147;-87
2023/06/20 09:51:45;;;;;;;6.82;4.70;;;21.40;81.40;;;;;;5015094;28;20036;-87
2023/06/20 09:54:18;;;;;;;6.70;5.00;;;21.40;81.40;;;;;;5011883;28;20029;-87
2023/06/20 09:56:49;;;;;;;7.43;5.05;;;21.40;81.50;;;;;;5006031;28;20013;-87
2023/06/20 09:59:16;;;;;;;;;;;21.40;81.50;;;;;;5015352;28;20025;-87
2023/06/20 10:01:42;;;;;;;6.75;5.30;;;21.40;81.60;;;;;;5032098;28;19927;-87
2023/06/20 10:04:08;;;;;;;7.20;5.20;;;21.40;81.60;;;;;;5012430;28;20032;-87
2023/06/20 10:06:37;;;;;;;6.22;4.60;;;21.40;81.60;;;;;;5023646;28;20032;-86
2023/06/20 10:09:07;;;;;;;6.38;4.75;;;21.40;81.60;;;;;;5015882;28;20036;-87
2023/06/20 10:11:35;;;;;;;6.97;5.28;;;21.40;81.50;;;;;;5022100;28;20028;-88
2023/06/20 10:14:02;;;;;;;6.50;4.80;;;21.40;81.50;;;;;;5037937;28;20014;-87
2023/06/20 10:16:29;;;;;;;6.38;5.03;;;21.40;81.50;;;;;;5021152;28;20019;-88
2023/06/20 10:18:54;;;;;;;6.22;4.45;;;21.50;81.40;;;;;;5022701;28;20049;-87
2023/06/20 10:21:54;;;;;;;6.53;4.55;;;21.50;81.30;;;;;;5043488;28;20036;-88
2023/06/20 10:24:20;;;;;;;6.50;4.68;;;21.50;81.00;;;;;;5038877;28;20014;-87
2023/06/20 10:26:52;;;;;;;6.28;4.70;;;21.60;80.90;;;;;;5042009;28;20033;-87
2023/06/20 10:29:18;;;;;;;6.00;4.70;;;21.60;80.80;;;;;;5041827;28;20424;-87
2023/06/20 10:32:03;;;;;;;6.43;4.97;;;21.60;80.80;;;;;;5041255;28;20033;-87
2023/06/20 10:34:50;;;;;;;7.25;4.60;;;21.60;80.70;;;;;;5038144;28;20027;-87
2023/06/20 10:37:26;;;;;;;6.53;4.70;;;21.60;80.60;;;;;;5040436;28;20458;-88
2023/06/20 10:39:53;;;;;;;6.20;4.63;;;21.70;80.60;;;;;;5022712;28;20021;-87
2023/06/20 10:42:38;;;;;;;6.70;5.00;;;21.60;80.60;;;;;;5040970;28;20551;-88
2023/06/20 10:45:26;;;;;;;7.00;4.85;;;21.60;80.60;;;;;;5021847;28;20021;-87
2023/06/20 10:47:53;;;;;;;6.60;4.70;;;21.60;80.70;;;;;;5039669;28;20021;-87
2023/06/20 10:50:20;;;;;;;7.18;4.90;;;21.60;80.80;;;;;;5022144;28;20025;-87
2023/06/20 10:52:46;;;;;;;6.50;4.78;;;21.60;80.90;;;;;;5040067;28;20104;-87
2023/06/20 10:55:26;;;;;;;6.35;4.68;;;21.60;80.90;;;;;;5028742;28;20542;-87
2023/06/20 10:57:53;;;;;;;6.63;4.57;;;21.60;81.00;;;;;;5023703;28;20104;-88
2023/06/20 11:00:21;;;;;;;6.38;4.78;;;21.60;80.80;;;;;;5042567;28;20029;-88
2023/06/20 11:02:54;;;;;;;6.45;4.80;;;21.60;80.80;;;;;;5024255;28;20021;-88
2023/06/20 11:05:26;;;;;;;6.50;4.93;;;21.60;80.80;;;;;;5009436;28;20492;-88
2023/06/20 11:07:58;;;;;;;;;;;21.60;80.80;;;;;;5005140;28;20475;-88
2023/06/20 11:10:31;;;;;;;6.05;4.55;;;21.70;80.90;;;;;;5022186;28;19902;-88
2023/06/20 11:12:58;;;;;;;6.90;4.75;;;21.70;80.90;;;;;;5004449;28;20034;-87
2023/06/20 11:15:32;;;;;;;6.70;4.50;;;21.70;80.80;;;;;;5032539;28;20033;-88
2023/06/20 11:18:00;;;;;;;6.00;4.57;;;21.70;80.80;;;;;;5041085;28;20017;-87
2023/06/20 11:20:26;;;;;;;5.85;4.65;;;21.70;80.70;;;;;;5042244;28;20079;-88
2023/06/20 11:22:54;;;;;;;6.35;4.90;;;21.70;80.90;;;;;;5041091;28;20021;-88
2023/06/20 11:25:30;;;;;;;6.80;5.20;;;21.70;80.70;;;;;;5018589;28;20037;-87
2023/06/20 11:28:10;;;;;;;6.47;5.15;;;21.70;80.70;;;;;;5036620;28;20092;-87
2023/06/20 11:30:37;;;;;;;7.32;4.72;;;21.80;80.70;;;;;;5020653;28;20553;-88
2023/06/20 11:33:14;;;;;;;6.57;4.80;;;21.80;80.70;;;;;;5021290;28;20051;-87
2023/06/20 11:35:46;;;;;;;6.00;4.60;;;21.80;80.80;;;;;;5017349;28;20474;-87
2023/06/20 11:38:16;;;;;;;6.82;4.90;;;21.80;80.90;;;;;;5020093;28;20025;-88
2023/06/20 11:40:43;;;;;;;6.50;4.72;;;21.70;80.80;;;;;;5021033;28;20025;-89
2023/06/20 11:43:26;;;;;;;6.45;4.75;;;21.80;80.80;;;;;;5020790;28;20037;-88
2023/06/20 11:46:00;;;;;;;6.15;4.55;;;21.80;80.70;;;;;;5016747;28;20026;-89
2023/06/20 11:48:26;;;;;;;6.85;4.68;;;21.80;80.70;;;;;;5018849;28;20044;-89
2023/06/20 11:50:57;;;;;;;6.40;4.68;;;21.80;80.60;;;;;;5000157;28;20044;-89
2023/06/20 11:53:25;;;;;;;5.68;4.32;;;21.90;80.60;;;;;;5000128;28;20053;-88
2023/06/20 11:55:54;;;;;;;6.22;4.80;;;21.80;80.50;;;;;;5014097;28;20044;-87
2023/06/20 11:58:20;;;;;;;5.97;4.47;;;21.80;80.50;;;;;;5011208;28;20025;-87
2023/06/20 12:00:47;;;;;;;5.97;4.45;;;22.00;80.60;;;;;;5038138;28;20017;-88
2023/06/20 12:03:18;;;;;;;6.55;5.00;;;21.80;80.50;;;;;;5018632;28;20021;-87
2023/06/20 12:05:44;;;;;;;6.07;4.57;;;21.80;80.50;;;;;;5022415;28;20029;-88
2023/06/20 12:08:09;;;;;;;6.15;4.55;;;21.80;80.60;;;;;;5018812;28;20359;-88
2023/06/20 12:10:57;;;;;;;6.30;4.68;;;21.80;80.50;;;;;;5018714;28;20029;-88
2023/06/20 12:13:22;;;;;;;6.32;4.43;;;21.90;80.60;;;;;;5018185;28;20104;-88
2023/06/20 12:15:48;;;;;;;6.00;4.40;;;21.80;80.50;;;;;;5015196;28;20498;-88
2023/06/20 12:18:13;;;;;;;6.70;5.20;;;21.80;80.60;;;;;;5014874;28;20067;-88
2023/06/20 12:20:39;;;;;;;6.10;4.45;;;21.80;80.70;;;;;;5014948;28;20102;-88
2023/06/20 12:23:04;;;;;;;6.22;4.57;;;21.80;80.70;;;;;;5015409;28;20056;-88
2023/06/20 12:25:30;;;;;;;6.00;4.45;;;21.80;80.80;;;;;;5027478;28;20077;-88
2023/06/20 12:27:57;;;;;;;6.13;4.65;;;21.80;80.80;;;;;;5035002;28;20032;-88
2023/06/20 12:30:25;;;;;;;6.18;4.60;;;21.80;80.90;;;;;;5034998;28;20013;-89
2023/06/20 12:32:51;;;;;;;6.20;4.40;;;21.80;80.90;;;;;;5016842;28;20059;-88
2023/06/20 12:35:16;;;;;;;6.60;4.47;;;21.70;81.00;;;;;;5006489;28;20026;-88
2023/06/20 12:37:42;;;;;;;6.90;5.25;;;21.70;81.10;;;;;;5021886;28;20125;-88
2023/06/20 12:40:09;;;;;;;5.88;4.25;;;21.70;81.20;;;;;;5016639;28;20068;-88
2023/06/20 12:42:36;;;;;;;6.20;4.50;;;21.70;81.20;;;;;;5034497;28;20021;-88
2023/06/20 12:45:01;;;;;;;6.20;4.70;;;21.70;81.20;;;;;;5028327;28;20072;-88
2023/06/20 12:47:27;;;;;;;6.25;4.63;;;21.70;81.30;;;;;;5017676;28;20025;-88
2023/06/20 12:49:52;;;;;;;6.35;4.78;;;21.70;81.30;;;;;;5016958;28;20029;-88
2023/06/20 12:52:18;;;;;;;6.15;4.53;;;21.70;81.30;;;;;;5016302;28;20067;-88